Kezdőlap
METAR-TAF:

METAR-TAF

Repülőterek :

Pekingi nemzetközi repülőtér

Peking, Kína

földrajzi szélesség: 39-56N, földrajzi hosszúság: 116-17E, magasság: 55 m

Jelenlegi meteorológiai megfigyelések

A jelentés 10 perccel ezelõtt készült, 03:30 UTC
Északi szél 6 kt, észak-északnyugati és északkeleti között változik
Hőmérséklet 30°C
Páratartalom 55%
Légköri nyomás 1009 hPa
Látótávolság 10 km, vagy több
enyhe záporok

METAR: ZBAA 150330Z 36003MPS 330V040 9999 -SHRA NSC 30/20 Q1009 NOSIG

Idő: 11:40 (03:40 UTC)

Előrejelzés

A jelentés 6 órával és 10 perccel ezelõtt készült, 21:30 UTC
Az előrejelzés 15-én 00 óra UTC és 15-én 24 óra UTC között érvényes
Észak-északkeleti szél 8 kt
Látótávolság 10 km, vagy több
felhőtlen 1500 m magasságban, és nincs gomolyfelhõ

TAF: ZBAA 142130Z 1500/1524 02004MPS CAVOK TX32/1507Z TN22/1521Z

Meteorológiai megfigyelések és előrejelzések több, mint 4000 repülőtéren (METAR és TAF jelentéseket).

A térképen piros és sárga pontok jelzik az elérhető meteorológiai állomásokat.

Mozgassa az egeret a pont fölött, hogy megjelenjen az állomás neve.

Azután kattintson az időjárási megfigyelések és előrejelzések megtekintéséhez.

A térkép megváltoztatása: kattintson a fekete keresztel jelölt zöld gombra ráközelítéshez, a vonallal jelölt zöld gombra távolításhoz, vagy a zöld nyilakra a szomszédos térképek eléréséhez.


METAR-TAF: